createdAt,value
2019-03-04T00:01:40.657Z,34.38
2019-03-04T00:03:48.126Z,33.28
2019-03-04T00:05:55.618Z,32.83
2019-03-04T00:08:03.260Z,30.32
2019-03-04T00:10:13.255Z,31.82
2019-03-04T00:12:20.753Z,31.87
2019-03-04T00:14:28.322Z,31.87
2019-03-04T00:16:35.991Z,31.45
2019-03-04T00:18:43.501Z,33.28
2019-03-04T00:20:51.145Z,34.25
2019-03-04T00:22:58.717Z,33.28
2019-03-04T00:25:07.022Z,32.23
2019-03-04T00:27:14.684Z,33.20
2019-03-04T00:29:22.252Z,33.38
2019-03-04T00:31:29.870Z,34.90
2019-03-04T00:33:37.611Z,36.20
2019-03-04T00:35:45.326Z,38.33
2019-03-04T00:37:53.003Z,38.50
2019-03-04T00:40:00.572Z,38.10
2019-03-04T00:42:09.287Z,38.58
2019-03-04T00:44:16.888Z,35.95
2019-03-04T00:46:24.457Z,35.88
2019-03-04T00:48:32.034Z,36.65
2019-03-04T00:50:39.537Z,37.90
2019-03-04T00:52:47.113Z,37.08
2019-03-04T00:54:54.683Z,37.73
2019-03-04T00:57:02.287Z,37.93
2019-03-04T00:59:09.767Z,41.35
2019-03-04T01:01:18.304Z,38.85
2019-03-04T01:03:25.821Z,37.98
2019-03-04T01:05:33.458Z,33.67
2019-03-04T01:07:41.443Z,30.23
2019-03-04T01:09:49.052Z,30.45
2019-03-04T01:11:57.036Z,28.35
2019-03-04T01:14:05.051Z,28.15
2019-03-04T01:16:12.660Z,27.50
2019-03-04T01:18:20.126Z,26.82
2019-03-04T01:20:27.763Z,26.15
2019-03-04T01:22:35.439Z,24.90
2019-03-04T01:24:43.097Z,26.05
2019-03-04T01:26:50.637Z,27.80
2019-03-04T01:28:58.144Z,25.40
2019-03-04T01:31:07.208Z,25.57
2019-03-04T01:33:14.952Z,26.25
2019-03-04T01:35:22.704Z,25.70
2019-03-04T01:37:30.540Z,24.05
2019-03-04T01:39:38.183Z,26.00
2019-03-04T01:41:45.794Z,25.77
2019-03-04T01:43:53.465Z,24.63
2019-03-04T01:46:01.044Z,25.77
2019-03-04T01:48:08.647Z,24.47
2019-03-04T01:50:20.781Z,23.70
2019-03-04T01:52:28.276Z,25.43
2019-03-04T01:54:35.959Z,23.80
2019-03-04T01:56:43.600Z,24.18
2019-03-04T01:58:51.176Z,23.73
2019-03-04T02:00:58.777Z,23.90
2019-03-04T02:03:06.590Z,25.40
2019-03-04T02:05:14.587Z,27.05
2019-03-04T02:07:22.117Z,28.35
2019-03-04T02:09:29.688Z,29.23
2019-03-04T02:11:37.256Z,28.60
2019-03-04T02:13:46.041Z,29.50
2019-03-04T02:15:53.575Z,28.70
2019-03-04T02:18:01.147Z,28.42
2019-03-04T02:20:19.313Z,26.62
2019-03-04T02:22:26.887Z,25.90
2019-03-04T02:24:34.455Z,25.72
2019-03-04T02:26:42.053Z,22.62
2019-03-04T02:28:49.619Z,22.70
2019-03-04T02:30:57.093Z,21.70
2019-03-04T02:33:05.161Z,21.85
2019-03-04T02:35:12.808Z,22.22
2019-03-04T02:37:20.346Z,20.72
2019-03-04T02:39:27.944Z,21.15
2019-03-04T02:41:35.753Z,20.48
2019-03-04T02:43:43.404Z,21.93
2019-03-04T02:45:51.105Z,23.45
2019-03-04T02:47:59.202Z,24.20
2019-03-04T02:50:08.376Z,24.50
2019-03-04T02:52:15.875Z,22.75
2019-03-04T02:54:23.515Z,21.68
2019-03-04T02:56:31.195Z,21.75
2019-03-04T02:58:38.761Z,21.30
2019-03-04T03:00:46.509Z,21.62
2019-03-04T03:02:54.087Z,21.23
2019-03-04T03:05:01.702Z,21.97
2019-03-04T03:07:09.729Z,20.95
2019-03-04T03:09:17.307Z,21.82
2019-03-04T03:11:24.906Z,23.25
2019-03-04T03:13:33.455Z,23.80
2019-03-04T03:15:41.120Z,24.10
2019-03-04T03:17:48.796Z,24.00
2019-03-04T03:19:56.368Z,25.92
2019-03-04T03:22:04.081Z,25.52
2019-03-04T03:24:11.674Z,25.57
2019-03-04T03:26:19.240Z,24.23
2019-03-04T03:28:26.715Z,23.12
2019-03-04T03:30:34.218Z,22.75
2019-03-04T03:32:42.927Z,21.35
2019-03-04T03:34:50.466Z,19.48
2019-03-04T03:36:58.072Z,19.17
2019-03-04T03:39:07.251Z,19.35
2019-03-04T03:41:15.359Z,18.92
2019-03-04T03:43:23.020Z,18.80
2019-03-04T03:45:30.590Z,19.48
2019-03-04T03:47:38.230Z,19.75
2019-03-04T03:49:45.721Z,18.75
2019-03-04T03:51:53.470Z,19.35
2019-03-04T03:54:01.159Z,19.25
2019-03-04T03:56:08.824Z,19.30
2019-03-04T03:58:16.363Z,18.80
2019-03-04T04:00:25.544Z,21.48
2019-03-04T04:02:33.046Z,20.85
2019-03-04T04:04:40.620Z,19.25
2019-03-04T04:06:48.190Z,18.45
2019-03-04T04:08:55.694Z,18.07
2019-03-04T04:11:03.283Z,17.37
2019-03-04T04:13:10.915Z,18.60
2019-03-04T04:15:20.268Z,17.82
2019-03-04T04:17:29.785Z,17.92
2019-03-04T04:19:37.252Z,26.93
2019-03-04T04:21:44.925Z,21.33
2019-03-04T04:23:52.470Z,19.20
2019-03-04T04:26:00.048Z,18.60
2019-03-04T04:28:09.313Z,18.30
2019-03-04T04:30:25.125Z,18.90
2019-03-04T04:32:32.687Z,18.15
2019-03-04T04:34:40.195Z,18.67
2019-03-04T04:36:47.739Z,18.60
2019-03-04T04:38:55.304Z,19.02
2019-03-04T04:41:02.909Z,18.20
2019-03-04T04:43:10.948Z,19.02
2019-03-04T04:45:18.691Z,17.82
2019-03-04T04:47:26.361Z,17.60
2019-03-04T04:49:33.932Z,18.17
2019-03-04T04:51:41.409Z,18.32
2019-03-04T04:53:49.005Z,17.17
2019-03-04T04:55:56.577Z,17.95
2019-03-04T04:58:05.515Z,17.85
2019-03-04T05:00:21.345Z,20.62
2019-03-04T05:02:28.914Z,18.27
2019-03-04T05:04:36.452Z,19.10
2019-03-04T05:06:44.153Z,19.70
2019-03-04T05:08:51.720Z,18.82
2019-03-04T05:10:59.206Z,16.97
2019-03-04T05:13:06.809Z,16.85
2019-03-04T05:15:16.792Z,17.17
2019-03-04T05:17:24.369Z,18.95
2019-03-04T05:19:31.999Z,21.10
2019-03-04T05:21:39.538Z,20.12
2019-03-04T05:23:49.018Z,18.55
2019-03-04T05:25:56.637Z,16.93
2019-03-04T05:28:04.286Z,16.37
2019-03-04T05:30:22.186Z,16.65
2019-03-04T05:32:29.679Z,16.48
2019-03-04T05:34:37.332Z,16.67
2019-03-04T05:36:44.787Z,15.60
2019-03-04T05:38:52.402Z,16.50
2019-03-04T05:40:59.882Z,16.75
2019-03-04T05:43:07.458Z,16.55
2019-03-04T05:45:19.728Z,16.37
2019-03-04T05:47:27.198Z,17.73
2019-03-04T05:49:36.062Z,19.52
2019-03-04T05:51:43.687Z,20.43
2019-03-04T05:53:51.232Z,20.60
2019-03-04T05:55:58.800Z,20.37
2019-03-04T05:58:06.462Z,19.40
2019-03-04T06:00:24.699Z,17.82
2019-03-04T06:02:32.289Z,16.55
2019-03-04T06:04:41.188Z,16.20
2019-03-04T06:06:50.395Z,17.50
2019-03-04T06:08:58.036Z,15.50
2019-03-04T06:11:08.216Z,17.55
2019-03-04T06:13:15.792Z,16.27
2019-03-04T06:15:24.337Z,16.85
2019-03-04T06:17:31.940Z,16.87
2019-03-04T06:19:40.485Z,16.57
2019-03-04T06:21:48.144Z,16.48
2019-03-04T06:23:55.746Z,17.02
2019-03-04T06:26:03.323Z,16.93
2019-03-04T06:28:12.007Z,17.30
2019-03-04T06:30:22.988Z,17.27
2019-03-04T06:32:30.556Z,22.75
2019-03-04T06:34:38.225Z,18.10
2019-03-04T06:36:45.841Z,16.85
2019-03-04T06:38:53.485Z,16.70
2019-03-04T06:41:01.057Z,17.65
2019-03-04T06:43:08.730Z,17.40
2019-03-04T06:45:18.217Z,17.48
2019-03-04T06:47:25.755Z,18.82
2019-03-04T06:49:33.267Z,16.95
2019-03-04T06:51:40.909Z,16.42
2019-03-04T06:54:05.174Z,17.62
2019-03-04T06:56:35.202Z,18.55
2019-03-04T06:59:06.628Z,17.87
2019-03-04T07:01:18.609Z,19.17
2019-03-04T07:03:26.184Z,20.68
2019-03-04T07:05:50.506Z,20.77
2019-03-04T07:07:58.199Z,21.40
2019-03-04T07:10:09.122Z,20.88
2019-03-04T07:12:16.707Z,21.07
2019-03-04T07:14:24.384Z,22.98
2019-03-04T07:16:32.287Z,23.35
2019-03-04T07:18:40.051Z,22.50
2019-03-04T07:20:47.995Z,22.60
2019-03-04T07:22:55.599Z,23.62
2019-03-04T07:25:03.091Z,23.38
2019-03-04T07:27:10.829Z,24.02
2019-03-04T07:29:18.547Z,24.87
2019-03-04T07:31:26.120Z,28.55
2019-03-04T07:33:33.703Z,23.90
2019-03-04T07:35:41.453Z,21.10
2019-03-04T07:37:52.286Z,23.07
2019-03-04T07:39:59.865Z,22.10
2019-03-04T07:42:07.563Z,22.77
2019-03-04T07:44:15.175Z,25.48
2019-03-04T07:46:22.918Z,25.32
2019-03-04T07:48:30.536Z,24.30
2019-03-04T07:50:38.257Z,21.07
2019-03-04T07:52:45.843Z,17.30
2019-03-04T07:54:53.444Z,17.32
2019-03-04T07:57:01.098Z,18.23
2019-03-04T07:59:08.751Z,16.48
2019-03-04T08:01:16.268Z,16.93
2019-03-04T08:03:23.747Z,16.32
2019-03-04T08:05:31.298Z,16.32
2019-03-04T08:07:49.357Z,17.40
2019-03-04T08:10:40.972Z,16.67
2019-03-04T08:13:08.347Z,16.25
2019-03-04T08:15:16.009Z,13.50
2019-03-04T08:17:23.744Z,15.28
2019-03-04T08:19:31.268Z,14.38
2019-03-04T08:21:39.711Z,13.90
2019-03-04T08:23:47.380Z,13.78
2019-03-04T08:25:54.997Z,13.68
2019-03-04T08:28:02.831Z,13.88
2019-03-04T08:30:15.064Z,13.60
2019-03-04T08:32:22.649Z,12.53
2019-03-04T08:34:33.184Z,13.53
2019-03-04T08:36:40.879Z,12.25
2019-03-04T08:38:48.497Z,13.48
2019-03-04T08:40:56.154Z,13.15
2019-03-04T08:43:03.987Z,12.85
2019-03-04T08:45:15.222Z,12.05
2019-03-04T08:47:23.780Z,12.30
2019-03-04T08:49:31.373Z,12.05
2019-03-04T08:51:39.095Z,11.10
2019-03-04T08:53:46.701Z,10.90
2019-03-04T08:55:54.285Z,9.50
2019-03-04T08:58:01.907Z,10.05
2019-03-04T09:00:20.763Z,10.95
2019-03-04T09:02:28.352Z,11.90
2019-03-04T09:04:35.979Z,10.72
2019-03-04T09:06:43.810Z,11.10
2019-03-04T09:08:51.461Z,11.70
2019-03-04T09:10:59.082Z,12.30
2019-03-04T09:13:08.379Z,9.68
2019-03-04T09:15:17.083Z,10.93
2019-03-04T09:17:24.835Z,10.13
2019-03-04T09:19:32.640Z,8.80
2019-03-04T09:21:41.788Z,8.95
2019-03-04T09:23:50.086Z,8.63
2019-03-04T09:26:02.369Z,8.78
2019-03-04T09:28:09.947Z,9.08
2019-03-04T09:30:18.506Z,10.23
2019-03-04T09:32:26.165Z,9.48
2019-03-04T09:34:33.756Z,9.20
2019-03-04T09:36:41.373Z,8.90
2019-03-04T09:38:49.026Z,9.58
2019-03-04T09:40:56.613Z,9.23
2019-03-04T09:43:06.376Z,9.23
2019-03-04T09:45:16.367Z,9.65
2019-03-04T09:47:23.921Z,8.78
2019-03-04T09:49:31.542Z,9.78
2019-03-04T09:51:39.160Z,11.28
2019-03-04T09:53:46.652Z,10.13
2019-03-04T09:55:54.789Z,9.98
2019-03-04T09:58:02.371Z,9.75
2019-03-04T10:00:44.626Z,9.45
2019-03-04T10:02:56.586Z,9.20
2019-03-04T10:05:13.397Z,9.10
2019-03-04T10:07:32.988Z,9.05
2019-03-04T10:10:02.834Z,8.35
2019-03-04T10:12:38.858Z,9.00
2019-03-04T10:15:10.443Z,8.88
2019-03-04T10:17:31.720Z,8.70
2019-03-04T10:20:18.981Z,9.45
2019-03-04T10:22:50.927Z,7.65
2019-03-04T10:25:29.804Z,7.92
2019-03-04T10:28:06.040Z,8.00
2019-03-04T10:30:26.831Z,8.73
2019-03-04T10:33:07.625Z,9.10
2019-03-04T10:35:56.517Z,8.63
2019-03-04T10:38:34.563Z,7.47
2019-03-04T10:40:53.670Z,7.70
2019-03-04T10:43:34.587Z,7.78
2019-03-04T10:46:13.908Z,7.25
2019-03-04T10:48:21.485Z,8.08
2019-03-04T10:50:29.085Z,7.50
2019-03-04T10:52:36.685Z,7.08
2019-03-04T10:54:44.407Z,7.60
2019-03-04T10:56:52.990Z,7.65
2019-03-04T10:59:00.574Z,7.40
2019-03-04T11:01:08.329Z,6.45
2019-03-04T11:03:16.005Z,7.22
2019-03-04T11:05:23.755Z,7.40
2019-03-04T11:07:31.309Z,6.58
2019-03-04T11:09:38.827Z,8.15
2019-03-04T11:11:46.546Z,7.75
2019-03-04T11:13:54.208Z,6.67
2019-03-04T11:16:01.815Z,6.62
2019-03-04T11:18:10.754Z,7.40
2019-03-04T11:20:18.447Z,7.33
2019-03-04T11:22:27.917Z,7.03
2019-03-04T11:24:35.463Z,6.97
2019-03-04T11:26:43.112Z,6.80
2019-03-04T11:28:50.717Z,7.12
2019-03-04T11:30:58.198Z,6.40
2019-03-04T11:33:06.992Z,6.03
2019-03-04T11:35:15.045Z,6.58
2019-03-04T11:37:22.521Z,5.40
2019-03-04T11:39:34.438Z,6.55
2019-03-04T11:41:42.038Z,5.83
2019-03-04T11:43:49.593Z,6.05
2019-03-04T11:45:58.375Z,5.72
2019-03-04T11:48:06.195Z,6.55
2019-03-04T11:50:16.528Z,7.22
2019-03-04T11:52:24.150Z,6.55
2019-03-04T11:54:31.940Z,5.87
2019-03-04T11:56:39.414Z,6.30
2019-03-04T11:58:47.107Z,6.30
2019-03-04T12:00:56.528Z,5.90
2019-03-04T12:03:04.244Z,5.95
2019-03-04T12:05:13.834Z,5.72
2019-03-04T12:07:21.516Z,5.15
2019-03-04T12:09:29.039Z,5.55
2019-03-04T12:11:38.401Z,5.17
2019-03-04T12:13:45.926Z,5.05
2019-03-04T12:15:55.141Z,5.33
2019-03-04T12:18:02.905Z,5.70
2019-03-04T12:20:13.032Z,5.37
2019-03-04T12:22:21.657Z,4.92
2019-03-04T12:24:30.185Z,5.30
2019-03-04T12:26:38.006Z,5.10
2019-03-04T12:28:45.594Z,5.50
2019-03-04T12:30:53.203Z,5.10
2019-03-04T12:33:00.885Z,4.95
2019-03-04T12:35:11.637Z,5.40
2019-03-04T12:37:19.123Z,5.08
2019-03-04T12:39:26.789Z,5.03
2019-03-04T12:41:34.361Z,5.10
2019-03-04T12:53:23.441Z,4.50
2019-03-04T12:55:31.364Z,3.92
2019-03-04T12:57:40.889Z,3.80
2019-03-04T12:59:48.463Z,4.53
2019-03-04T13:01:56.040Z,4.42
2019-03-04T13:04:03.850Z,4.03
2019-03-04T13:06:11.453Z,3.60
2019-03-04T13:08:19.040Z,3.67
2019-03-04T13:10:26.610Z,3.75
2019-03-04T13:12:34.221Z,4.72
2019-03-04T13:14:41.966Z,4.85
2019-03-04T13:16:49.442Z,4.90
2019-03-04T13:18:56.957Z,5.00
2019-03-04T13:21:04.613Z,5.25
2019-03-04T13:23:13.328Z,4.70
2019-03-04T13:25:22.137Z,5.25
2019-03-04T13:27:29.691Z,4.55
2019-03-04T13:29:37.349Z,4.92
2019-03-04T13:31:44.966Z,5.60
2019-03-04T13:33:52.769Z,4.80
2019-03-04T13:36:00.376Z,4.85
2019-03-04T13:38:08.046Z,4.10
2019-03-04T13:40:15.962Z,4.12
2019-03-04T13:42:23.583Z,4.03
2019-03-04T13:44:31.164Z,4.37
2019-03-04T13:46:40.158Z,5.97
2019-03-04T13:48:47.833Z,5.10
2019-03-04T13:50:55.509Z,4.35
2019-03-04T13:53:03.101Z,4.42
2019-03-04T13:55:10.828Z,4.87
2019-03-04T13:57:18.437Z,5.08
2019-03-04T13:59:26.073Z,5.15
2019-03-04T14:01:33.647Z,5.25
2019-03-04T14:03:41.176Z,5.40
2019-03-04T14:05:48.827Z,4.80
2019-03-04T14:07:56.505Z,5.28
2019-03-04T14:10:06.459Z,5.60
2019-03-04T14:12:14.027Z,5.17
2019-03-04T14:14:21.750Z,5.03
2019-03-04T14:16:29.631Z,5.75
2019-03-04T14:18:37.290Z,6.42
2019-03-04T14:20:45.010Z,5.78
2019-03-04T14:22:57.767Z,5.30
2019-03-04T14:25:01.900Z,5.22
2019-03-04T14:27:10.383Z,5.33
2019-03-04T14:29:18.126Z,5.75
2019-03-04T14:31:26.993Z,5.67
2019-03-04T14:33:34.757Z,5.70
2019-03-04T14:35:42.586Z,6.22
2019-03-04T14:37:50.240Z,8.95
2019-03-04T14:39:57.832Z,10.43
2019-03-04T14:42:06.647Z,13.93
2019-03-04T14:44:15.375Z,7.60
2019-03-04T14:46:24.476Z,7.80
2019-03-04T14:48:32.063Z,9.08
2019-03-04T14:50:39.667Z,10.70
2019-03-04T14:52:47.559Z,12.40
2019-03-04T14:54:55.178Z,11.38
2019-03-04T14:57:02.776Z,13.50
2019-03-04T14:59:11.357Z,14.45
2019-03-04T15:01:19.031Z,16.27
2019-03-04T15:03:26.520Z,20.57
2019-03-04T15:05:35.621Z,25.32
2019-03-04T15:07:43.218Z,29.50
2019-03-04T15:09:50.812Z,26.23
2019-03-04T15:11:58.473Z,25.88
2019-03-04T15:14:06.179Z,22.55
2019-03-04T15:16:13.841Z,18.90
2019-03-04T15:18:22.511Z,15.80
2019-03-04T15:20:33.507Z,12.80
2019-03-04T15:22:41.380Z,11.08
2019-03-04T15:24:49.169Z,7.62
2019-03-04T15:26:56.781Z,7.58
2019-03-04T15:29:07.156Z,7.45
2019-03-04T15:31:15.032Z,6.72
2019-03-04T15:33:22.611Z,7.22
2019-03-04T15:35:30.193Z,8.48
2019-03-04T15:37:37.920Z,8.45
2019-03-04T15:39:45.677Z,9.15
2019-03-04T15:41:53.273Z,9.25
2019-03-04T15:44:00.842Z,7.42
2019-03-04T15:46:08.520Z,7.53
2019-03-04T15:48:17.409Z,7.70
2019-03-04T15:50:25.081Z,8.08
2019-03-04T15:52:32.704Z,8.10
2019-03-04T15:54:40.358Z,8.30
2019-03-04T15:56:49.030Z,7.40
2019-03-04T15:58:56.792Z,7.20
2019-03-04T16:01:05.262Z,7.00
2019-03-04T16:03:13.108Z,7.47
2019-03-04T16:05:20.780Z,7.50
2019-03-04T16:07:28.502Z,8.08
2019-03-04T16:09:36.438Z,9.30
2019-03-04T16:11:44.059Z,15.70
2019-03-04T16:13:55.122Z,18.30
2019-03-04T16:16:01.106Z,17.10
2019-03-04T16:18:08.853Z,18.30
2019-03-04T16:20:23.089Z,18.57
2019-03-04T16:22:30.647Z,16.35
2019-03-04T16:24:38.173Z,14.07
2019-03-04T16:26:45.766Z,13.43
2019-03-04T16:28:53.353Z,14.07
2019-03-04T16:31:01.864Z,14.20
2019-03-04T16:33:09.633Z,16.05
2019-03-04T16:35:17.287Z,22.48
2019-03-04T16:37:24.976Z,64.77
2019-03-04T16:39:32.651Z,173.90
2019-03-04T16:41:40.237Z,150.30
2019-03-04T16:43:47.873Z,133.95
2019-03-04T16:45:55.480Z,127.90
2019-03-04T16:48:03.274Z,116.88
2019-03-04T16:50:14.894Z,102.65
2019-03-04T16:52:26.905Z,101.55
2019-03-04T16:54:34.411Z,72.65
2019-03-04T16:56:42.032Z,44.08
2019-03-04T16:58:49.619Z,33.25
2019-03-04T17:00:57.917Z,38.85
2019-03-04T17:03:05.605Z,38.53
2019-03-04T17:05:16.809Z,28.27
2019-03-04T17:07:24.475Z,27.22
2019-03-04T17:09:32.069Z,25.97
2019-03-04T17:11:39.726Z,27.10
2019-03-04T17:13:47.215Z,28.77
2019-03-04T17:15:55.909Z,27.07
2019-03-04T17:18:03.397Z,29.77
2019-03-04T17:20:14.751Z,36.70
2019-03-04T17:22:22.334Z,31.95
2019-03-04T17:24:30.150Z,28.87
2019-03-04T17:26:37.706Z,24.30
2019-03-04T17:28:45.352Z,23.70
2019-03-04T17:30:54.196Z,24.02
2019-03-04T17:33:02.789Z,31.50
2019-03-04T17:35:13.999Z,32.42
2019-03-04T17:37:21.723Z,35.68
2019-03-04T17:39:29.393Z,43.13
2019-03-04T17:41:37.182Z,43.83
2019-03-04T17:43:44.785Z,43.38
2019-03-04T17:45:52.451Z,47.17
2019-03-04T17:48:00.080Z,61.53
2019-03-04T17:50:12.116Z,62.80
2019-03-04T17:52:20.785Z,54.30
2019-03-04T17:54:28.467Z,60.63
2019-03-04T17:56:36.077Z,57.83
2019-03-04T17:58:43.810Z,52.15
2019-03-04T18:00:54.062Z,52.00
2019-03-04T18:03:01.697Z,140.30
2019-03-04T18:05:11.313Z,161.60
2019-03-04T18:07:18.843Z,111.75
2019-03-04T18:09:26.531Z,124.40
2019-03-04T18:11:34.265Z,85.92
2019-03-04T18:13:42.868Z,80.75
2019-03-04T18:15:50.534Z,73.52
2019-03-04T18:17:58.143Z,59.48
2019-03-04T18:20:10.477Z,57.05
2019-03-04T18:22:18.145Z,53.87
2019-03-04T18:24:25.752Z,59.08
2019-03-04T18:26:38.081Z,67.65
2019-03-04T18:29:02.479Z,64.58
2019-03-04T18:31:20.719Z,45.25
2019-03-04T18:33:50.236Z,36.17
2019-03-04T18:36:05.297Z,34.45
2019-03-04T18:38:41.892Z,31.65
2019-03-04T18:41:18.290Z,25.72
2019-03-04T18:43:49.913Z,23.50
2019-03-04T18:46:23.075Z,22.13
2019-03-04T18:48:52.779Z,24.47
2019-03-04T18:51:00.273Z,23.42
2019-03-04T18:53:07.962Z,24.60
2019-03-04T18:55:15.693Z,26.12
2019-03-04T18:57:23.354Z,26.10
2019-03-04T18:59:31.116Z,24.95
2019-03-04T19:01:38.779Z,23.50
2019-03-04T19:03:46.539Z,25.45
2019-03-04T19:05:54.237Z,24.85
2019-03-04T19:08:02.147Z,25.25
2019-03-04T19:10:13.002Z,23.70
2019-03-04T19:12:20.816Z,23.83
2019-03-04T19:14:28.398Z,24.95
2019-03-04T19:16:36.066Z,26.30
2019-03-04T19:18:44.755Z,26.97
2019-03-04T19:20:52.598Z,26.12
2019-03-04T19:23:00.267Z,27.02
2019-03-04T19:25:09.267Z,27.70
2019-03-04T19:27:16.995Z,24.37
2019-03-04T19:29:24.589Z,26.97
2019-03-04T19:31:32.989Z,23.12
2019-03-04T19:33:40.705Z,16.45
2019-03-04T19:35:48.303Z,16.40
2019-03-04T19:37:56.006Z,12.75
2019-03-04T19:40:06.169Z,8.80
2019-03-04T19:42:14.060Z,8.28
2019-03-04T19:44:21.852Z,7.70
2019-03-04T19:46:29.675Z,7.20
2019-03-04T19:48:38.377Z,3.70
2019-03-04T19:50:46.092Z,4.87
2019-03-04T19:52:53.681Z,5.33
2019-03-04T19:55:01.329Z,4.97
2019-03-04T19:57:09.204Z,4.08
2019-03-04T19:59:16.866Z,4.87
2019-03-04T20:01:24.622Z,5.00
2019-03-04T20:03:32.450Z,2.50
2019-03-04T20:05:40.782Z,3.15
2019-03-04T20:07:48.992Z,3.00
2019-03-04T20:09:56.502Z,2.70
2019-03-04T20:12:04.228Z,4.05
2019-03-04T20:14:12.254Z,2.22
2019-03-04T20:16:20.217Z,4.08
2019-03-04T20:18:27.865Z,2.47
2019-03-04T20:20:35.521Z,1.87
2019-03-04T20:22:43.204Z,1.62
2019-03-04T20:24:50.855Z,2.35
2019-03-04T20:26:58.441Z,1.90
2019-03-04T20:29:05.940Z,1.85
2019-03-04T20:31:14.021Z,2.05
2019-03-04T20:33:21.742Z,2.52
2019-03-04T20:35:29.399Z,1.95
2019-03-04T20:37:37.195Z,2.47
2019-03-04T20:39:44.914Z,2.83
2019-03-04T20:41:53.088Z,2.70
2019-03-04T20:44:01.728Z,1.70
2019-03-04T20:46:09.272Z,2.60
2019-03-04T20:48:16.940Z,2.55
2019-03-04T20:50:25.749Z,1.95
2019-03-04T20:52:33.287Z,2.92
2019-03-04T20:54:40.989Z,3.40
2019-03-04T20:56:48.466Z,2.75
2019-03-04T20:58:56.100Z,4.17
2019-03-04T21:01:03.742Z,5.67
2019-03-04T21:03:11.457Z,4.60
2019-03-04T21:05:19.172Z,4.92
2019-03-04T21:07:27.221Z,5.00
2019-03-04T21:09:34.805Z,4.78
2019-03-04T21:11:42.483Z,5.03
2019-03-04T21:13:50.151Z,4.75
2019-03-04T21:15:57.774Z,3.20
2019-03-04T21:18:06.201Z,3.77
2019-03-04T21:20:18.427Z,4.00
2019-03-04T21:22:26.036Z,4.35
2019-03-04T21:24:33.746Z,4.10
2019-03-04T21:26:41.488Z,4.60
2019-03-04T21:29:02.512Z,5.53
2019-03-04T21:31:31.903Z,5.15
2019-03-04T21:34:11.554Z,4.70
2019-03-04T21:36:45.636Z,4.42
2019-03-04T21:38:57.484Z,5.10
2019-03-04T21:41:21.964Z,5.15
2019-03-04T21:43:40.400Z,5.85
2019-03-04T21:46:01.920Z,6.03
2019-03-04T21:48:26.232Z,6.12
2019-03-04T21:51:04.100Z,6.62
2019-03-04T21:53:23.107Z,6.65
2019-03-04T21:55:56.294Z,5.60
2019-03-04T21:58:04.290Z,6.03
2019-03-04T22:00:17.268Z,6.15
2019-03-04T22:02:44.808Z,5.60
2019-03-04T22:04:53.827Z,6.28
2019-03-04T22:07:01.627Z,6.10
2019-03-04T22:09:10.082Z,6.12
2019-03-04T22:11:17.893Z,6.25
2019-03-04T22:13:25.802Z,5.97
2019-03-04T22:15:34.725Z,5.60
2019-03-04T22:17:42.997Z,6.92
2019-03-04T22:19:50.626Z,7.72
2019-03-04T22:21:59.192Z,6.50
2019-03-04T22:24:07.072Z,5.85
2019-03-04T22:26:14.703Z,5.87
2019-03-04T22:28:22.371Z,5.90
2019-03-04T22:30:30.138Z,6.05
2019-03-04T22:32:37.776Z,5.97
2019-03-04T22:34:45.369Z,8.28
2019-03-04T22:36:53.546Z,7.75
2019-03-04T22:39:01.223Z,9.40
2019-03-04T22:41:10.401Z,8.45
2019-03-04T22:43:17.972Z,7.30
2019-03-04T22:45:25.693Z,5.05
2019-03-04T22:47:33.367Z,4.78
2019-03-04T22:49:41.135Z,5.28
2019-03-04T22:51:48.719Z,4.85
2019-03-04T22:53:56.249Z,7.83
2019-03-04T22:56:03.838Z,6.62
2019-03-04T22:58:11.567Z,6.40
2019-03-04T23:00:52.091Z,7.47
2019-03-04T23:03:00.097Z,6.62
2019-03-04T23:05:11.376Z,6.00
2019-03-04T23:07:18.943Z,5.47
2019-03-04T23:09:47.153Z,5.08
2019-03-04T23:12:17.717Z,5.25
2019-03-04T23:14:30.629Z,5.50
2019-03-04T23:16:38.088Z,6.10
2019-03-04T23:18:45.727Z,5.75
2019-03-04T23:20:53.388Z,6.47
2019-03-04T23:23:01.054Z,6.30
2019-03-04T23:25:12.955Z,7.25
2019-03-04T23:27:20.565Z,7.85
2019-03-04T23:29:28.132Z,8.18
2019-03-04T23:31:36.777Z,7.87
2019-03-04T23:33:44.265Z,7.47
2019-03-04T23:35:51.730Z,7.00
2019-03-04T23:38:00.138Z,7.15
2019-03-04T23:40:11.526Z,6.58
2019-03-04T23:42:19.155Z,7.05
2019-03-04T23:44:26.763Z,7.10
2019-03-04T23:46:34.261Z,7.53
2019-03-04T23:48:41.900Z,6.22
2019-03-04T23:50:49.537Z,6.62
2019-03-04T23:52:57.024Z,6.30
2019-03-04T23:55:05.598Z,6.10
2019-03-04T23:57:13.220Z,6.60
2019-03-04T23:59:20.711Z,6.40
